Etusivu
METAR-TAF:

METAR-TAF

Lentoasemat :

Rosario, Argentiina

Leveyspiiri: 32-55S, Pituuspiiri: 060-47W, korkeus merenpinnasta: 25 m

Tämänhetkinen sää

Tämä raportti tehtiin 17 minuuttia sitten, kello 22.00 UTC
Tuuli 5 kn idästä/kaakosta
Lämpötila 17°C
Kosteus 52%
Ilmanpaine 1023 hPa
Näkyvyys 10 km tai enemmän
ei pilviä alle 1500 m:ssä eikä cumulonimbus-pilviä

METAR: SAAR 082200Z 11005KT CAVOK 17/07 Q1023

Aika: 19:17 (22:17 UTC)

Sääennuste

Tämä raportti tehtiin 5 tuntia ja 17 minuuttia sitten, kello 17.00 UTC
Ennuste voimassa 08. päivästä klo 18 UTC - 09. päivään klo 18 UTC
Tuuli 10 kn idästä/koillisesta
Näkyvyys 10 km tai enemmän
ei pilviä alle 1500 m:ssä eikä cumulonimbus-pilviä

TAF: SAAR 081700Z 0818/0918 07010KT CAVOK TX22/0918Z TN07/0910Z

Säähavainnot ja -ennusteet yli 4000 lentoasemalta (METAR- ja TAF-raportit).

Käytössä olevat sääasemat on merkitty karttaan keltaisilla ja punaisilla pisteillä.

Aseta hiiri pisteen päälle nähdäksesi sääaseman nimen.

Klikkaa sitten nähdäksesi säähavainnot ja -ennusteet.

Kartan vaihtaminen: klikkaa mustalla rastilla varustettuja vihreitä pisteitä, niin voit zoomata sisään; viivalla varustettua vihreää pistettä, niin voit zoomata ulos tai vihreitä nuolia, niin pääset viereisille kartoille.


METAR-TAF: